Time;durP1;ratioP1;P1;durP2;ratioP2;P2;SDS_P1;SDS_P2;PMS_P1;PMS_P2;Temp;Humidity;BMP_temperature;BMP_pressure;BME280_temperature;BME280_humidity;BME280_pressure;Samples;Min_cycle;Max_cycle;Signal;HPM_P1;HPM_P2
2021/06/15 00:02:21;;;;;;;8.93;5.28;;;17.90;99.90;;;;;;5046589;28;20590;-79
2021/06/15 00:04:47;;;;;;;10.93;4.32;;;17.90;99.90;;;;;;5030996;28;20065;-80
2021/06/15 00:07:14;;;;;;;11.95;3.60;;;17.90;99.90;;;;;;5056098;28;20408;-79
2021/06/15 00:09:41;;;;;;;11.23;3.83;;;17.90;99.90;;;;;;5045131;28;20048;-79
2021/06/15 00:12:09;;;;;;;6.72;2.88;;;17.90;99.90;;;;;;5040488;28;20057;-80
2021/06/15 00:14:37;;;;;;;6.20;2.65;;;17.90;99.90;;;;;;5038149;28;20087;-80
2021/06/15 00:17:04;;;;;;;9.00;2.85;;;17.80;99.90;;;;;;5074730;28;20059;-79
2021/06/15 00:19:31;;;;;;;7.47;2.65;;;17.80;99.90;;;;;;5044081;28;20052;-81
2021/06/15 00:21:58;;;;;;;10.77;2.80;;;17.80;99.90;;;;;;5040493;28;20202;-79
2021/06/15 00:24:26;;;;;;;6.80;2.25;;;17.80;99.90;;;;;;5039170;28;20056;-80
2021/06/15 00:26:52;;;;;;;4.82;2.75;;;17.70;99.90;;;;;;5037998;28;20485;-80
2021/06/15 00:29:19;;;;;;;2.95;1.77;;;17.80;99.90;;;;;;5048164;28;20057;-79
2021/06/15 00:31:46;;;;;;;6.32;2.30;;;17.70;99.90;;;;;;5046183;28;20100;-80
2021/06/15 00:34:13;;;;;;;6.13;1.80;;;17.70;99.90;;;;;;5039714;28;20056;-80
2021/06/15 00:36:39;;;;;;;10.70;1.80;;;17.60;99.90;;;;;;5044718;28;20053;-80
2021/06/15 00:39:06;;;;;;;4.47;1.65;;;17.60;99.90;;;;;;5044910;28;20049;-80
2021/06/15 00:41:33;;;;;;;6.80;1.52;;;17.60;99.90;;;;;;5042329;28;20839;-80
2021/06/15 00:44:00;;;;;;;1.90;1.27;;;17.50;99.90;;;;;;5049400;28;20045;-80
2021/06/15 00:46:27;;;;;;;8.80;1.70;;;17.50;99.90;;;;;;5045158;28;20045;-79
2021/06/15 00:48:54;;;;;;;4.88;1.25;;;17.50;99.90;;;;;;5054246;28;20052;-80
2021/06/15 00:51:21;;;;;;;3.35;1.30;;;17.30;99.90;;;;;;5050522;28;20522;-80
2021/06/15 00:53:49;;;;;;;6.38;1.15;;;17.30;99.90;;;;;;5043561;28;20056;-80
2021/06/15 00:56:15;;;;;;;6.28;1.60;;;17.20;99.90;;;;;;5083428;28;20049;-80
2021/06/15 00:58:42;;;;;;;6.00;1.00;;;17.10;99.90;;;;;;5046022;28;20049;-80
2021/06/15 01:01:09;;;;;;;5.40;1.25;;;17.10;99.90;;;;;;5058394;28;20057;-80
2021/06/15 01:03:36;;;;;;;6.50;0.98;;;17.10;99.90;;;;;;5046019;28;20480;-80
2021/06/15 01:06:12;;;;;;;5.72;1.00;;;17.10;99.90;;;;;;5046712;28;20043;-80
2021/06/15 01:09:01;;;;;;;3.67;0.88;;;17.00;99.90;;;;;;5045312;28;20465;-80
2021/06/15 01:11:39;;;;;;;6.07;1.30;;;17.00;99.90;;;;;;5074989;28;20128;-80
2021/06/15 01:14:22;;;;;;;3.28;0.68;;;16.90;99.90;;;;;;5074312;28;20043;-80
2021/06/15 01:17:08;;;;;;;5.15;0.90;;;16.90;99.90;;;;;;5079817;28;20412;-80
2021/06/15 01:20:02;;;;;;;6.07;1.65;;;16.80;99.90;;;;;;5044100;28;20042;-79
2021/06/15 01:22:44;;;;;;;4.72;0.77;;;16.80;99.90;;;;;;5061502;28;20044;-80
2021/06/15 01:25:48;;;;;;;7.10;1.17;;;16.80;99.90;;;;;;5075361;28;20049;-80
2021/06/15 01:28:28;;;;;;;7.28;1.52;;;16.80;99.90;;;;;;5050530;28;20051;-79
2021/06/15 01:31:03;;;;;;;6.80;0.80;;;16.70;99.90;;;;;;5046836;28;20053;-79
2021/06/15 01:33:36;;;;;;;8.82;0.90;;;16.70;99.90;;;;;;5045443;28;20059;-79
2021/06/15 01:36:04;;;;;;;4.25;0.73;;;16.70;99.90;;;;;;5051740;28;20439;-80
2021/06/15 01:38:37;;;;;;;6.60;0.70;;;16.70;99.90;;;;;;5044427;28;20045;-79
2021/06/15 01:41:09;;;;;;;6.00;0.85;;;16.70;99.90;;;;;;5045894;28;20885;-79
2021/06/15 01:43:44;;;;;;;6.28;1.27;;;16.70;99.90;;;;;;5063507;28;20065;-80
2021/06/15 01:46:12;;;;;;;4.95;0.82;;;16.70;99.90;;;;;;5041506;28;20136;-80
2021/06/15 01:48:59;;;;;;;5.95;0.70;;;16.70;99.90;;;;;;5044029;28;20449;-79
2021/06/15 01:51:26;;;;;;;6.20;0.82;;;16.70;99.90;;;;;;5061091;28;20040;-79
2021/06/15 01:53:57;;;;;;;5.45;1.02;;;16.70;99.90;;;;;;5028944;28;24779;-79
2021/06/15 01:56:28;;;;;;;6.20;1.02;;;16.70;99.90;;;;;;5043852;28;20045;-79
2021/06/15 01:58:57;;;;;;;8.68;2.08;;;16.70;99.90;;;;;;5042066;28;20404;-79
2021/06/15 02:01:27;;;;;;;4.30;0.57;;;16.60;99.90;;;;;;5077394;28;20679;-80
2021/06/15 02:03:56;;;;;;;9.23;1.10;;;16.60;99.90;;;;;;5047697;28;20450;-80
2021/06/15 02:06:24;;;;;;;5.18;0.70;;;16.60;99.90;;;;;;5058202;28;20143;-80
2021/06/15 02:08:53;;;;;;;2.75;0.57;;;16.50;99.90;;;;;;5048637;28;20037;-80
2021/06/15 02:11:22;;;;;;;6.57;1.10;;;16.50;99.90;;;;;;5043619;28;20032;-80
2021/06/15 02:13:50;;;;;;;5.82;0.90;;;16.50;99.90;;;;;;5072692;28;20564;-79
2021/06/15 02:16:17;;;;;;;7.63;1.08;;;16.50;99.90;;;;;;5041994;28;20059;-79
2021/06/15 02:18:50;;;;;;;4.63;0.90;;;16.40;99.90;;;;;;5059188;28;20052;-80
2021/06/15 02:21:18;;;;;;;11.52;1.75;;;16.40;99.90;;;;;;5042604;28;20049;-80
2021/06/15 02:23:48;;;;;;;9.27;0.88;;;16.40;99.90;;;;;;5042401;28;20481;-79
2021/06/15 02:26:17;;;;;;;3.35;0.93;;;16.40;99.90;;;;;;5043196;28;20042;-79
2021/06/15 02:28:45;;;;;;;12.50;1.23;;;16.40;99.90;;;;;;5042485;28;20492;-80
2021/06/15 02:31:36;;;;;;;6.68;0.98;;;16.50;99.90;;;;;;5043306;28;20865;-80
2021/06/15 02:34:06;;;;;;;7.57;0.80;;;16.50;99.90;;;;;;5071148;28;20051;-80
2021/06/15 02:36:35;;;;;;;8.82;0.90;;;16.50;99.90;;;;;;5057087;28;20037;-79
2021/06/15 02:39:09;;;;;;;6.15;1.13;;;16.50;99.90;;;;;;5045611;28;20047;-79
2021/06/15 02:41:39;;;;;;;4.40;1.00;;;16.50;99.90;;;;;;5035069;28;20055;-80
2021/06/15 02:44:08;;;;;;;6.30;1.35;;;16.50;99.90;;;;;;5047242;28;20054;-79
2021/06/15 02:46:36;;;;;;;7.03;1.90;;;16.40;99.90;;;;;;5047172;28;20041;-80
2021/06/15 02:49:09;;;;;;;12.38;1.35;;;16.40;99.90;;;;;;5047120;28;20041;-79
2021/06/15 02:51:42;;;;;;;9.43;1.77;;;16.30;99.90;;;;;;5074967;28;20041;-79
2021/06/15 02:54:29;;;;;;;5.63;0.93;;;16.30;99.90;;;;;;5039057;28;20041;-80
2021/06/15 02:56:58;;;;;;;8.05;1.05;;;16.20;99.90;;;;;;5048575;28;20033;-80
2021/06/15 02:59:24;;;;;;;8.05;1.30;;;16.10;99.90;;;;;;5039654;28;20147;-80
2021/06/15 03:01:53;;;;;;;12.68;1.55;;;16.10;99.90;;;;;;5044749;28;20047;-80
2021/06/15 03:04:20;;;;;;;4.93;1.05;;;16.10;99.90;;;;;;5039085;28;20053;-80
2021/06/15 03:06:47;;;;;;;4.63;1.02;;;16.10;99.90;;;;;;5048971;28;20048;-80
2021/06/15 03:09:14;;;;;;;9.13;1.60;;;16.10;99.90;;;;;;5045151;28;20571;-80
2021/06/15 03:11:51;;;;;;;7.22;1.33;;;16.10;99.90;;;;;;5045745;28;20063;-80
2021/06/15 03:14:22;;;;;;;4.25;1.00;;;16.10;99.90;;;;;;5042210;28;20041;-80
2021/06/15 03:16:53;;;;;;;9.80;1.10;;;16.00;99.90;;;;;;5041626;28;20128;-79
2021/06/15 03:19:31;;;;;;;8.57;1.88;;;16.00;99.90;;;;;;5072155;28;20067;-80
2021/06/15 03:22:09;;;;;;;8.70;1.92;;;16.00;99.90;;;;;;5038722;28;20044;-80
2021/06/15 03:24:43;;;;;;;9.23;1.58;;;16.00;99.90;;;;;;5040109;28;20108;-80
2021/06/15 03:27:11;;;;;;;;;;;16.00;99.90;;;;;;5049085;28;20049;-80
2021/06/15 03:29:40;;;;;;;10.13;1.35;;;16.10;99.90;;;;;;5042995;28;19935;-79
2021/06/15 03:32:11;;;;;;;11.10;1.05;;;16.10;99.90;;;;;;5051067;28;20057;-79
2021/06/15 03:34:47;;;;;;;9.30;1.33;;;16.20;99.90;;;;;;5042828;28;20059;-79
2021/06/15 03:37:22;;;;;;;11.13;1.25;;;16.20;99.90;;;;;;5039679;28;20045;-79
2021/06/15 03:39:54;;;;;;;5.68;0.70;;;16.20;99.90;;;;;;5043353;28;20047;-79
2021/06/15 03:42:30;;;;;;;5.88;1.08;;;16.10;99.90;;;;;;5040036;28;20053;-79
2021/06/15 03:45:05;;;;;;;10.48;1.42;;;16.20;99.90;;;;;;5045143;28;20045;-79
2021/06/15 03:47:34;;;;;;;11.15;1.40;;;16.20;99.90;;;;;;5037380;28;20056;-77
2021/06/15 03:50:02;;;;;;;5.82;1.83;;;16.30;99.90;;;;;;5038670;28;20456;-78
2021/06/15 03:52:33;;;;;;;12.20;2.38;;;16.30;99.90;;;;;;5037778;28;20403;-79
2021/06/15 03:55:04;;;;;;;5.57;1.13;;;16.30;99.90;;;;;;5037326;28;20507;-80
2021/06/15 03:57:32;;;;;;;12.20;1.25;;;16.30;99.90;;;;;;5055773;28;20076;-79
2021/06/15 04:00:00;;;;;;;8.00;1.35;;;16.30;99.90;;;;;;5036234;28;20053;-78
2021/06/15 04:02:28;;;;;;;10.63;1.02;;;16.30;99.90;;;;;;5039776;28;20145;-79
2021/06/15 04:04:57;;;;;;;12.43;1.58;;;16.30;99.90;;;;;;5032877;28;20045;-78
2021/06/15 04:07:24;;;;;;;9.23;1.38;;;16.30;99.90;;;;;;5039100;28;20473;-79
2021/06/15 04:09:51;;;;;;;9.40;1.63;;;16.30;99.90;;;;;;5041725;28;20057;-79
2021/06/15 04:12:23;;;;;;;11.68;1.45;;;16.30;99.90;;;;;;5053158;28;20049;-78
2021/06/15 04:14:51;;;;;;;7.25;0.82;;;16.30;99.90;;;;;;5041853;28;20061;-79
2021/06/15 04:17:26;;;;;;;7.80;1.10;;;16.30;99.90;;;;;;5071074;28;20104;-79
2021/06/15 04:19:55;;;;;;;9.40;1.88;;;16.30;99.90;;;;;;5040441;28;20065;-79
2021/06/15 04:22:27;;;;;;;9.00;1.20;;;16.40;99.90;;;;;;5044789;28;20537;-78
2021/06/15 04:24:56;;;;;;;12.88;2.45;;;16.40;99.90;;;;;;5035358;28;20423;-79
2021/06/15 04:27:25;;;;;;;5.40;0.88;;;16.40;99.90;;;;;;5036852;28;20053;-78
2021/06/15 04:29:54;;;;;;;5.78;0.82;;;16.40;99.90;;;;;;5041562;28;20114;-79
2021/06/15 04:32:34;;;;;;;10.63;0.93;;;16.40;99.90;;;;;;5055346;28;20132;-78
2021/06/15 04:35:04;;;;;;;15.45;1.30;;;16.50;99.90;;;;;;5038371;28;20170;-79
2021/06/15 04:37:33;;;;;;;6.15;1.23;;;16.50;99.90;;;;;;5042032;28;20049;-78
2021/06/15 04:40:17;;;;;;;10.55;1.27;;;16.50;99.90;;;;;;5040347;28;21019;-78
2021/06/15 04:42:49;;;;;;;;;;;16.60;99.90;;;;;;5058902;28;20052;-78
2021/06/15 04:45:20;;;;;;;5.90;0.82;;;16.60;99.90;;;;;;5039194;28;19931;-78
2021/06/15 04:47:51;;;;;;;6.38;0.90;;;16.60;99.90;;;;;;5078899;28;20504;-78
2021/06/15 04:50:26;;;;;;;10.40;2.13;;;16.60;99.90;;;;;;5070545;28;20087;-78
2021/06/15 04:52:54;;;;;;;12.73;1.30;;;16.60;99.90;;;;;;5050242;28;20052;-78
2021/06/15 04:55:26;;;;;;;12.73;1.70;;;16.50;99.90;;;;;;5040685;28;20049;-78
2021/06/15 04:57:55;;;;;;;9.65;1.20;;;16.50;99.90;;;;;;5035135;28;20125;-78
2021/06/15 05:00:26;;;;;;;13.02;1.40;;;16.50;99.90;;;;;;5039730;28;20618;-78
2021/06/15 05:02:53;;;;;;;10.43;1.35;;;16.50;99.90;;;;;;5040665;28;20048;-78
2021/06/15 05:05:22;;;;;;;13.30;1.67;;;16.50;99.90;;;;;;5040641;28;20072;-80
2021/06/15 05:08:04;;;;;;;8.65;1.20;;;16.50;99.90;;;;;;5037276;28;20053;-78
2021/06/15 05:10:36;;;;;;;8.23;1.00;;;16.60;99.90;;;;;;5041637;28;20048;-78
2021/06/15 05:13:07;;;;;;;9.70;1.23;;;16.60;99.90;;;;;;5031926;28;20055;-81
2021/06/15 05:15:34;;;;;;;10.80;1.55;;;16.70;99.90;;;;;;5022260;28;20049;-78
2021/06/15 05:18:02;;;;;;;7.35;1.10;;;16.80;99.90;;;;;;5035304;28;20128;-78
2021/06/15 05:20:28;;;;;;;8.55;1.20;;;16.90;99.90;;;;;;5045245;28;20536;-78
2021/06/15 05:23:09;;;;;;;17.88;1.63;;;16.90;99.90;;;;;;5036190;28;20041;-78
2021/06/15 05:25:35;;;;;;;8.43;1.10;;;17.00;99.90;;;;;;5041855;28;20049;-77
2021/06/15 05:28:02;;;;;;;10.38;1.25;;;17.10;99.90;;;;;;5060577;28;20052;-78
2021/06/15 05:30:29;;;;;;;10.68;1.65;;;17.10;99.90;;;;;;5034902;28;20473;-80
2021/06/15 05:32:56;;;;;;;10.32;1.23;;;17.20;99.90;;;;;;5041173;28;20081;-78
2021/06/15 05:35:23;;;;;;;10.15;2.00;;;17.20;99.90;;;;;;5073942;28;20057;-79
2021/06/15 05:37:50;;;;;;;17.77;1.65;;;17.30;99.90;;;;;;5049932;28;20053;-78
2021/06/15 05:40:18;;;;;;;12.75;1.70;;;17.40;99.90;;;;;;5041766;28;20050;-80
2021/06/15 05:42:45;;;;;;;12.60;1.13;;;17.40;99.90;;;;;;5041007;28;20061;-78
2021/06/15 05:45:12;;;;;;;9.45;1.25;;;17.50;99.90;;;;;;5040424;28;20872;-78
2021/06/15 05:47:41;;;;;;;14.43;1.92;;;17.60;99.90;;;;;;5042624;28;20045;-78
2021/06/15 05:50:08;;;;;;;10.65;2.05;;;17.70;99.90;;;;;;5035053;28;20636;-78
2021/06/15 05:52:35;;;;;;;14.18;1.90;;;17.70;99.90;;;;;;5037335;28;20404;-79
2021/06/15 05:55:06;;;;;;;7.32;0.95;;;17.70;99.90;;;;;;5053426;28;21905;-78
2021/06/15 05:57:34;;;;;;;7.60;0.95;;;17.70;99.90;;;;;;5060735;28;20052;-78
2021/06/15 06:00:01;;;;;;;9.45;1.00;;;17.70;99.90;;;;;;5048478;28;20052;-79
2021/06/15 06:02:28;;;;;;;8.90;1.70;;;17.80;99.90;;;;;;5044776;28;20161;-80
2021/06/15 06:10:09;;;;;;;5.68;0.88;;;17.80;99.90;;;;;;5037052;28;20447;-79
2021/06/15 06:12:36;;;;;;;8.00;1.45;;;17.80;99.90;;;;;;5040088;28;20053;-78
2021/06/15 06:15:04;;;;;;;22.42;2.70;;;17.80;99.80;;;;;;5040974;28;20079;-79
2021/06/15 06:17:32;;;;;;;8.18;1.23;;;17.80;99.90;;;;;;5033235;28;20045;-79
2021/06/15 06:20:15;;;;;;;8.18;1.60;;;17.90;99.90;;;;;;5040073;28;20049;-80
2021/06/15 06:22:42;;;;;;;7.85;1.08;;;18.10;99.90;;;;;;5043021;28;20104;-78
2021/06/15 06:25:13;;;;;;;5.13;1.00;;;18.20;99.70;;;;;;5040860;28;20049;-79
2021/06/15 06:27:41;;;;;;;5.53;0.77;;;18.50;99.90;;;;;;5044338;28;20502;-80
2021/06/15 06:30:09;;;;;;;6.28;1.05;;;18.70;99.50;;;;;;5038952;28;20493;-79
2021/06/15 06:32:36;;;;;;;10.55;1.13;;;18.80;98.50;;;;;;5044751;28;20527;-79
2021/06/15 06:35:04;;;;;;;6.40;0.90;;;18.90;97.70;;;;;;5022121;28;20049;-80
2021/06/15 06:37:32;;;;;;;7.70;0.90;;;18.80;97.30;;;;;;5058124;28;20049;-79
2021/06/15 06:39:59;;;;;;;8.02;1.08;;;18.80;97.50;;;;;;5043081;28;20051;-79
2021/06/15 06:42:25;;;;;;;6.80;0.93;;;18.80;97.20;;;;;;5037059;28;20055;-79
2021/06/15 06:44:52;;;;;;;2.97;1.13;;;18.90;97.10;;;;;;5043512;28;20444;-79
2021/06/15 06:47:19;;;;;;;8.20;1.73;;;19.10;97.00;;;;;;5037983;28;20058;-79
2021/06/15 06:49:46;;;;;;;8.82;2.00;;;19.10;96.60;;;;;;5040341;28;20171;-79
2021/06/15 06:52:22;;;;;;;7.32;1.05;;;19.20;96.30;;;;;;5035835;28;20061;-79
2021/06/15 06:54:48;;;;;;;7.35;0.82;;;19.30;96.10;;;;;;5041504;28;20059;-79
2021/06/15 06:57:16;;;;;;;6.85;1.13;;;19.40;95.40;;;;;;5040551;28;20419;-79
2021/06/15 06:59:42;;;;;;;9.15;0.93;;;19.50;95.00;;;;;;5056325;28;20998;-80
2021/06/15 07:02:09;;;;;;;6.32;1.15;;;19.40;95.20;;;;;;5040816;28;20046;-79
2021/06/15 07:04:36;;;;;;;5.40;1.20;;;19.50;94.80;;;;;;5039464;28;20044;-78
2021/06/15 07:07:03;;;;;;;3.95;0.90;;;19.60;93.50;;;;;;5034442;28;20049;-79
2021/06/15 07:09:31;;;;;;;5.72;1.55;;;19.60;93.20;;;;;;5055007;28;20403;-80
2021/06/15 07:11:58;;;;;;;4.57;1.13;;;19.60;93.40;;;;;;5034214;28;20072;-79
2021/06/15 07:14:25;;;;;;;7.53;1.33;;;19.60;93.10;;;;;;5070883;28;20136;-80
2021/06/15 07:16:52;;;;;;;6.28;0.90;;;19.60;92.20;;;;;;5042644;28;20041;-80
2021/06/15 07:19:18;;;;;;;11.55;0.90;;;19.60;92.00;;;;;;5038714;28;20045;-79
2021/06/15 07:21:45;;;;;;;4.78;0.68;;;19.70;92.30;;;;;;5041443;28;20051;-80
2021/06/15 07:24:12;;;;;;;5.53;0.98;;;19.80;92.30;;;;;;5033630;28;20113;-80
2021/06/15 07:26:39;;;;;;;6.82;1.23;;;19.90;92.50;;;;;;5040560;28;20049;-80
2021/06/15 07:29:05;;;;;;;6.72;1.02;;;20.10;92.60;;;;;;5035798;28;20055;-79
2021/06/15 07:31:32;;;;;;;6.63;1.02;;;20.20;91.80;;;;;;5039635;28;20130;-79
2021/06/15 07:33:59;;;;;;;4.72;1.55;;;20.30;92.20;;;;;;5041946;28;20424;-80
2021/06/15 07:36:26;;;;;;;4.97;1.10;;;20.30;91.30;;;;;;5042184;28;20117;-80
2021/06/15 07:38:53;;;;;;;7.60;1.27;;;20.40;90.40;;;;;;5039907;28;20103;-79
2021/06/15 07:41:20;;;;;;;8.82;1.13;;;20.30;90.50;;;;;;5042553;28;20062;-80
2021/06/15 07:43:47;;;;;;;8.77;1.17;;;20.30;90.10;;;;;;5042652;28;20049;-79
2021/06/15 07:46:17;;;;;;;4.15;0.93;;;20.40;91.00;;;;;;5046335;28;20064;-79
2021/06/15 07:48:44;;;;;;;4.00;1.40;;;20.50;90.10;;;;;;5044358;28;20057;-78
2021/06/15 07:51:12;;;;;;;6.22;1.02;;;20.60;90.80;;;;;;5042742;28;20464;-79
2021/06/15 07:53:39;;;;;;;6.70;1.63;;;20.80;90.50;;;;;;5042151;28;20087;-79
2021/06/15 07:56:06;;;;;;;5.10;0.80;;;20.90;90.00;;;;;;5036189;28;20052;-78
2021/06/15 07:58:32;;;;;;;6.10;1.00;;;20.90;89.30;;;;;;5041301;28;20140;-79
2021/06/15 08:01:00;;;;;;;6.13;0.98;;;21.00;85.60;;;;;;5038886;28;20068;-79
2021/06/15 08:03:26;;;;;;;3.75;1.13;;;21.10;85.30;;;;;;5028541;28;20077;-79
2021/06/15 08:05:53;;;;;;;4.93;0.80;;;21.10;85.80;;;;;;5039161;28;20389;-79
2021/06/15 08:08:20;;;;;;;4.75;0.90;;;21.20;84.40;;;;;;5040762;28;20052;-79
2021/06/15 08:10:47;;;;;;;5.20;0.85;;;21.20;82.60;;;;;;5038271;28;20559;-79
2021/06/15 08:13:14;;;;;;;9.40;1.70;;;21.20;82.10;;;;;;5039009;28;20048;-79
2021/06/15 08:15:41;;;;;;;5.60;0.88;;;21.20;84.20;;;;;;5035896;28;20041;-79
2021/06/15 08:18:08;;;;;;;6.38;0.88;;;21.30;84.40;;;;;;5041106;28;20049;-79
2021/06/15 08:20:35;;;;;;;8.05;1.27;;;21.40;86.00;;;;;;5037103;28;20136;-79
2021/06/15 08:23:03;;;;;;;6.38;0.93;;;21.60;84.90;;;;;;5044056;28;20051;-79
2021/06/15 08:25:30;;;;;;;5.75;1.52;;;21.70;82.90;;;;;;5037750;28;20067;-79
2021/06/15 08:27:57;;;;;;;7.47;1.23;;;21.80;82.00;;;;;;5036928;28;20097;-79
2021/06/15 08:30:24;;;;;;;5.88;1.00;;;21.70;83.20;;;;;;5073075;28;20045;-80
2021/06/15 08:32:51;;;;;;;5.57;0.90;;;21.80;82.50;;;;;;5039111;28;20071;-79
2021/06/15 08:35:17;;;;;;;8.32;1.63;;;21.80;80.20;;;;;;5041091;28;20144;-79
2021/06/15 08:37:44;;;;;;;3.00;0.68;;;21.70;81.30;;;;;;5054808;28;20059;-79
2021/06/15 08:40:11;;;;;;;6.28;1.02;;;21.70;81.50;;;;;;5042547;28;20041;-79
2021/06/15 08:42:39;;;;;;;7.45;1.05;;;21.80;80.70;;;;;;5046710;28;20051;-79
2021/06/15 08:45:08;;;;;;;6.22;1.00;;;21.90;81.70;;;;;;5040946;28;20143;-79
2021/06/15 08:47:43;;;;;;;6.13;0.80;;;22.00;80.10;;;;;;5038393;28;20053;-78
2021/06/15 08:50:13;;;;;;;8.43;1.02;;;22.10;80.00;;;;;;5037839;28;20496;-80
2021/06/15 08:52:42;;;;;;;7.45;1.65;;;22.20;78.40;;;;;;5072784;28;20044;-80
2021/06/15 08:55:10;;;;;;;7.93;1.33;;;22.20;79.20;;;;;;5024372;28;20046;-80
2021/06/15 08:57:38;;;;;;;7.45;0.95;;;22.30;77.60;;;;;;5043710;28;20055;-80
2021/06/15 09:00:08;;;;;;;12.55;1.45;;;22.40;77.50;;;;;;5040681;28;20136;-80
2021/06/15 09:02:46;;;;;;;8.55;1.20;;;22.40;79.10;;;;;;5041592;28;20052;-79
2021/06/15 09:05:18;;;;;;;7.13;1.20;;;22.40;76.00;;;;;;5043055;28;20506;-80
2021/06/15 09:07:57;;;;;;;5.63;1.23;;;22.40;76.60;;;;;;5046202;28;20051;-79
2021/06/15 09:10:32;;;;;;;3.47;0.90;;;22.40;78.60;;;;;;5072901;28;20059;-80
2021/06/15 09:12:59;;;;;;;5.25;1.02;;;22.60;75.70;;;;;;5046022;28;20053;-79
2021/06/15 09:15:27;;;;;;;5.43;0.95;;;22.70;75.40;;;;;;5042229;28;20060;-80
2021/06/15 09:17:54;;;;;;;4.57;1.05;;;22.80;76.10;;;;;;5042713;28;20052;-79
2021/06/15 09:20:30;;;;;;;6.70;1.60;;;22.90;74.60;;;;;;5059451;28;20088;-79
2021/06/15 09:23:00;;;;;;;8.55;1.33;;;22.90;74.40;;;;;;5081006;28;20068;-80
2021/06/15 09:25:28;;;;;;;5.88;1.58;;;23.00;75.30;;;;;;5040346;28;20075;-80
2021/06/15 09:27:57;;;;;;;4.80;1.42;;;23.00;73.50;;;;;;5045165;28;24865;-80
2021/06/15 09:30:28;;;;;;;10.55;1.88;;;23.10;74.60;;;;;;5041597;28;20508;-80
2021/06/15 09:33:07;;;;;;;9.35;1.40;;;23.30;74.70;;;;;;5046128;28;20045;-80
2021/06/15 09:35:33;;;;;;;4.15;1.08;;;23.50;72.00;;;;;;5041783;28;20504;-80
2021/06/15 09:38:01;;;;;;;4.88;1.02;;;23.60;72.50;;;;;;5037307;28;20049;-80
2021/06/15 09:40:35;;;;;;;4.68;1.15;;;23.60;70.00;;;;;;5076259;28;20053;-80
2021/06/15 09:43:09;;;;;;;6.18;1.20;;;23.50;71.40;;;;;;5042753;28;20076;-80
2021/06/15 09:45:39;;;;;;;3.90;1.17;;;23.60;70.90;;;;;;5072739;28;20049;-80
2021/06/15 09:48:34;;;;;;;7.25;1.33;;;23.60;69.90;;;;;;5055901;28;20051;-80
2021/06/15 09:51:04;;;;;;;5.70;1.70;;;23.50;68.00;;;;;;5046747;28;20052;-79
2021/06/15 09:53:32;;;;;;;8.52;1.20;;;23.40;69.70;;;;;;5035566;28;20072;-80
2021/06/15 09:56:02;;;;;;;6.65;1.83;;;23.50;72.00;;;;;;5040028;28;20065;-79
2021/06/15 09:58:46;;;;;;;6.07;1.38;;;23.70;70.70;;;;;;5074017;28;20591;-81
2021/06/15 10:01:36;;;;;;;4.68;1.48;;;23.70;71.20;;;;;;5040639;28;20087;-80
2021/06/15 10:04:23;;;;;;;8.90;1.60;;;23.80;70.80;;;;;;5040987;28;20061;-80
2021/06/15 10:06:55;;;;;;;4.95;1.42;;;23.90;70.20;;;;;;5072607;28;20071;-80
2021/06/15 10:09:26;;;;;;;3.97;1.40;;;24.00;70.00;;;;;;5069431;28;20105;-79
2021/06/15 10:11:56;;;;;;;5.03;1.13;;;24.10;73.10;;;;;;5044306;28;20055;-79
2021/06/15 10:14:24;;;;;;;5.38;1.27;;;24.10;69.20;;;;;;5039030;28;20408;-80
2021/06/15 10:16:52;;;;;;;5.47;1.27;;;24.10;70.00;;;;;;5040378;28;20066;-80
2021/06/15 10:19:20;;;;;;;4.20;0.85;;;24.10;69.30;;;;;;5037888;28;20060;-80
2021/06/15 10:21:47;;;;;;;8.90;1.48;;;24.20;69.40;;;;;;5046404;28;20547;-80
2021/06/15 10:24:19;;;;;;;4.53;1.33;;;24.40;68.60;;;;;;5048866;28;20415;-80
2021/06/15 10:27:01;;;;;;;6.30;1.67;;;24.50;67.50;;;;;;5048427;28;20538;-80
2021/06/15 10:29:28;;;;;;;6.85;1.60;;;24.70;73.60;;;;;;5057923;28;20045;-80
2021/06/15 10:31:56;;;;;;;6.97;1.55;;;24.90;67.20;;;;;;5063656;28;20519;-80
2021/06/15 10:34:57;;;;;;;6.07;1.48;;;25.00;68.10;;;;;;5041190;28;20063;-80
2021/06/15 10:37:33;;;;;;;5.35;1.27;;;24.90;65.60;;;;;;5073102;28;20040;-80
2021/06/15 10:40:13;;;;;;;4.47;0.98;;;24.90;67.40;;;;;;5042491;28;20048;-80
2021/06/15 10:43:20;;;;;;;3.80;1.10;;;25.10;68.10;;;;;;5044240;28;20112;-80
2021/06/15 10:46:11;;;;;;;10.13;1.60;;;25.30;66.10;;;;;;5043746;28;20087;-80
2021/06/15 10:48:43;;;;;;;2.85;0.90;;;25.50;64.50;;;;;;5071103;28;20041;-80
2021/06/15 10:51:21;;;;;;;6.88;1.02;;;25.60;64.90;;;;;;5044891;28;20498;-79
2021/06/15 10:53:48;;;;;;;19.23;1.48;;;25.70;66.90;;;;;;5040982;28;20047;-80
2021/06/15 10:56:18;;;;;;;7.63;1.35;;;26.00;64.50;;;;;;5032280;28;20053;-80
2021/06/15 10:58:48;;;;;;;3.33;0.98;;;26.20;66.50;;;;;;5040451;28;20159;-80
2021/06/15 11:01:32;;;;;;;5.95;1.42;;;26.40;64.50;;;;;;5053491;28;20136;-80
2021/06/15 11:04:05;;;;;;;8.52;1.30;;;26.40;62.10;;;;;;5046066;28;20123;-80
2021/06/15 11:06:32;;;;;;;4.10;0.93;;;26.50;63.50;;;;;;5040048;28;20075;-80
2021/06/15 11:09:17;;;;;;;4.07;1.10;;;26.40;63.10;;;;;;5054175;28;20060;-80
2021/06/15 11:11:50;;;;;;;4.47;1.13;;;26.50;63.10;;;;;;5056099;28;20053;-80
2021/06/15 11:14:18;;;;;;;6.43;1.08;;;26.60;64.00;;;;;;5040619;28;20049;-80
2021/06/15 11:16:46;;;;;;;6.78;1.33;;;26.90;64.10;;;;;;5042659;28;20049;-80
2021/06/15 11:19:13;;;;;;;6.18;1.52;;;27.10;59.50;;;;;;5037832;28;20057;-80
2021/06/15 11:21:54;;;;;;;5.57;1.25;;;27.00;58.10;;;;;;5055935;28;20045;-80
2021/06/15 11:24:34;;;;;;;5.72;1.33;;;26.90;58.70;;;;;;5043996;28;20503;-80
2021/06/15 11:27:26;;;;;;;3.42;1.00;;;26.90;59.00;;;;;;5075511;28;20052;-80
2021/06/15 11:29:59;;;;;;;6.03;1.02;;;27.00;62.00;;;;;;5035791;28;20049;-80
2021/06/15 11:32:28;;;;;;;3.30;1.15;;;27.30;61.30;;;;;;5037801;28;20052;-80
2021/06/15 11:35:04;;;;;;;5.25;1.00;;;27.50;59.60;;;;;;5040572;28;20489;-80
2021/06/15 11:37:44;;;;;;;6.43;1.55;;;27.80;59.60;;;;;;5047236;28;20045;-80
2021/06/15 11:40:20;;;;;;;3.92;1.05;;;28.20;57.00;;;;;;5042966;28;20045;-80
2021/06/15 11:42:52;;;;;;;5.07;1.10;;;28.30;57.70;;;;;;5040063;28;20444;-80
2021/06/15 11:45:20;;;;;;;5.30;1.27;;;28.30;55.90;;;;;;5039417;28;20067;-80
2021/06/15 11:47:51;;;;;;;6.97;1.42;;;28.20;56.80;;;;;;5050044;28;20309;-80
2021/06/15 11:50:36;;;;;;;6.95;1.35;;;28.30;58.90;;;;;;5044833;28;20055;-80
2021/06/15 11:53:10;;;;;;;4.40;1.02;;;28.60;55.90;;;;;;5047484;28;20408;-80
2021/06/15 11:55:45;;;;;;;5.68;1.02;;;29.00;55.80;;;;;;5043972;28;20054;-80
2021/06/15 11:58:19;;;;;;;8.15;1.50;;;29.30;58.00;;;;;;5037524;28;20048;-79
2021/06/15 12:00:50;;;;;;;7.15;1.60;;;29.80;56.80;;;;;;5072418;28;20045;-81
2021/06/15 12:03:22;;;;;;;3.20;1.10;;;30.20;56.20;;;;;;5039769;28;20052;-80
2021/06/15 12:05:52;;;;;;;8.55;1.02;;;30.30;51.50;;;;;;5044290;28;20049;-80
2021/06/15 12:08:20;;;;;;;3.42;1.13;;;30.50;53.30;;;;;;5041344;28;20052;-79
2021/06/15 12:10:49;;;;;;;4.05;0.95;;;31.00;51.30;;;;;;5036534;28;20052;-79
2021/06/15 12:13:17;;;;;;;5.78;0.82;;;31.90;51.50;;;;;;5042439;28;20087;-79
2021/06/15 12:16:11;;;;;;;3.28;0.82;;;32.60;48.10;;;;;;5071866;28;20059;-79
2021/06/15 12:18:50;;;;;;;7.38;1.08;;;33.20;47.90;;;;;;5070752;28;20083;-79
2021/06/15 12:21:22;;;;;;;7.97;1.58;;;33.70;47.50;;;;;;5071335;28;20060;-78
2021/06/15 12:23:53;;;;;;;5.55;1.17;;;34.00;45.60;;;;;;5040094;28;20412;-79
2021/06/15 12:26:32;;;;;;;5.57;1.25;;;34.40;45.60;;;;;;5037872;28;20119;-79
2021/06/15 12:29:00;;;;;;;5.75;1.30;;;34.70;46.70;;;;;;5073876;28;20036;-79
2021/06/15 12:31:31;;;;;;;5.10;0.95;;;35.10;45.30;;;;;;5060936;28;20060;-79
2021/06/15 12:34:01;;;;;;;6.75;1.10;;;35.30;44.20;;;;;;5038151;28;20051;-79
2021/06/15 12:36:33;;;;;;;8.93;1.17;;;35.60;42.30;;;;;;5036395;28;20042;-79
2021/06/15 12:39:14;;;;;;;4.72;1.27;;;35.70;41.10;;;;;;5022835;28;20041;-80
2021/06/15 12:41:45;;;;;;;4.53;1.27;;;35.90;41.80;;;;;;5039119;28;20105;-79
2021/06/15 12:44:13;;;;;;;3.03;1.10;;;35.60;42.00;;;;;;5040466;28;20071;-79
2021/06/15 12:46:40;;;;;;;4.55;1.20;;;35.80;42.50;;;;;;5033414;28;20069;-80
2021/06/15 12:49:22;;;;;;;4.25;1.13;;;36.10;40.60;;;;;;5038582;28;20139;-80
2021/06/15 12:51:59;;;;;;;5.53;1.10;;;36.20;41.30;;;;;;5074776;28;20041;-79
2021/06/15 12:54:31;;;;;;;5.95;1.42;;;36.20;39.80;;;;;;5038152;28;20045;-79
2021/06/15 12:57:06;;;;;;;3.20;1.13;;;36.30;41.40;;;;;;5040930;28;20439;-80
2021/06/15 12:59:34;;;;;;;2.90;1.40;;;36.50;39.40;;;;;;5040204;28;20064;-79
2021/06/15 13:02:18;;;;;;;5.70;1.15;;;36.60;42.10;;;;;;5037503;28;20072;-80
2021/06/15 13:04:48;;;;;;;3.88;1.20;;;36.90;41.20;;;;;;5070860;28;20465;-80
2021/06/15 13:07:16;;;;;;;5.50;1.10;;;37.30;39.60;;;;;;5036308;28;20053;-79
2021/06/15 13:09:44;;;;;;;3.85;1.40;;;37.80;38.00;;;;;;5039018;28;20068;-80
2021/06/15 13:12:23;;;;;;;11.52;1.40;;;37.90;39.20;;;;;;5055372;28;20053;-80